Moses Lake, Washington
Current Conditions -  °F | °C
As of 4:52 AM on Thursday 23 Oct 2014 (Local Time) from KMWH Reporting Station
Broken Clouds Broken Clouds  
Wind Chill: 53°   Ceiling: 11000
Heat Index: 53°   Visibility: 10mi
Dew Point: 45°   Wind: 7mph
Humidity: 74%   Direction: 230°SW
Pressure: 29.73"   Gusts: NA
Location:  47.13°N, 119.27°W
Report Text: KMWH 231152Z AUTO 23006KT 10SM FEW080 BKN110 12/07 A2973 RMK AO2 SLP069 60001 70031 T01170072 10150 20117 50003 TSNO
Loading
Personal Weather Stations






























Interactive Weather Map New forecast layout! Learn more

10-Day Weather Forecast

Advertisements
Track Severe Weather on mobile